EmailTwitter


Surface observations / Quebec / CYUL (71627)

Regions: Quebec | Canada | USA | Europe | France | UK | Elsewhere
Station
Display
Info & Location for CYUL (71627) | Help decoding METAR

Weather Conditions observed on 2018/02/23 at 17:00 UTC at MONTREAL INTL A, QB (CYUL)

Sky conditions: overcast.

Temperature: -2.0 Celsius.

Dewpoint: -9.0 Celsius.

Relative Humidity: 59%

Windchill Factor: -7.

Winds: East at 15 km/h or 8 knots.

Mean Sea level Pressure: 102.99 kilopascals.

Altimeter Setting (QNH): 102.95 kilopascals or 30.40 inches of mercury.

Horizontal visibility: 15.00 statute miles or 24.00 kilometers.

Height of the Ceiling: 2896 metres ( 9500 feet ).

Coded METAR:

CYUL 231700Z 08008KT 15SM BKN095 OVC120 M02/M09 A3040 RMK AC6AC2 PRESFR SLP299=